Time;durP1;ratioP1;P1;durP2;ratioP2;P2;SDS_P1;SDS_P2;PMS_P1;PMS_P2;Temp;Humidity;BMP_temperature;BMP_pressure;BME280_temperature;BME280_humidity;BME280_pressure;Samples;Min_cycle;Max_cycle;Signal;HPM_P1;HPM_P2
2022/03/22 00:02:23;;;;;;;17.67;11.40;;;6.10;99.90;;;;;;5030879;28;20044;-76
2022/03/22 00:04:49;;;;;;;22.80;14.90;;;6.10;99.90;;;;;;5024626;28;20051;-75
2022/03/22 00:07:14;;;;;;;20.73;14.68;;;6.10;99.90;;;;;;5020170;28;20084;-76
2022/03/22 00:09:40;;;;;;;22.42;15.13;;;6.00;99.90;;;;;;5020088;28;20444;-76
2022/03/22 00:12:07;;;;;;;24.50;14.90;;;6.00;99.90;;;;;;5010951;28;20030;-76
2022/03/22 00:14:33;;;;;;;22.77;15.30;;;5.90;99.90;;;;;;5025606;28;20459;-76
2022/03/22 00:16:58;;;;;;;26.80;17.30;;;5.80;99.90;;;;;;5021719;28;20160;-77
2022/03/22 00:19:24;;;;;;;24.42;16.10;;;5.70;99.90;;;;;;5020260;28;20116;-76
2022/03/22 00:21:50;;;;;;;24.00;15.93;;;5.70;99.90;;;;;;5022841;28;20030;-76
2022/03/22 00:24:16;;;;;;;23.63;16.20;;;5.70;99.90;;;;;;5018163;28;20030;-76
2022/03/22 00:26:41;;;;;;;23.35;14.57;;;5.60;99.90;;;;;;5016344;28;20026;-76
2022/03/22 00:29:07;;;;;;;23.65;16.02;;;5.60;99.90;;;;;;5024285;28;20124;-75
2022/03/22 00:31:33;;;;;;;21.33;14.10;;;5.60;99.90;;;;;;5009305;28;20513;-76
2022/03/22 00:33:58;;;;;;;26.77;16.52;;;5.50;99.90;;;;;;5020627;28;20092;-76
2022/03/22 00:36:25;;;;;;;23.33;15.40;;;5.60;99.90;;;;;;5019741;28;20021;-76
2022/03/22 00:38:51;;;;;;;22.67;15.27;;;5.50;99.90;;;;;;5006356;28;20032;-76
2022/03/22 00:41:19;;;;;;;24.10;15.80;;;5.50;99.90;;;;;;5000174;28;20048;-76
2022/03/22 00:43:46;;;;;;;26.98;16.42;;;5.50;99.90;;;;;;5023947;28;20026;-76
2022/03/22 00:46:12;;;;;;;23.33;15.13;;;5.40;99.90;;;;;;5021292;28;20401;-76
2022/03/22 00:48:38;;;;;;;23.02;15.77;;;5.40;99.90;;;;;;5024659;28;20037;-76
2022/03/22 00:51:04;;;;;;;21.70;15.23;;;5.40;99.90;;;;;;5025863;28;20068;-76
2022/03/22 00:53:30;;;;;;;20.10;14.27;;;5.30;99.90;;;;;;5024922;28;20081;-76
2022/03/22 00:55:55;;;;;;;22.83;13.65;;;5.40;99.90;;;;;;5027911;28;20045;-76
2022/03/22 00:58:21;;;;;;;21.40;13.93;;;5.40;99.90;;;;;;5023966;28;20021;-76
2022/03/22 01:00:48;;;;;;;22.60;14.50;;;5.30;99.90;;;;;;5010284;28;20053;-76
2022/03/22 01:03:14;;;;;;;19.55;13.93;;;5.30;99.90;;;;;;5017904;28;20112;-76
2022/03/22 01:05:40;;;;;;;22.10;14.63;;;5.30;99.90;;;;;;5011258;28;20433;-76
2022/03/22 01:08:11;;;;;;;20.08;14.23;;;5.40;99.90;;;;;;5013242;28;20053;-75
2022/03/22 01:10:39;;;;;;;24.23;15.60;;;5.40;99.90;;;;;;5037160;28;20087;-75
2022/03/22 01:13:10;;;;;;;22.38;14.40;;;5.30;99.90;;;;;;5017933;28;20116;-75
2022/03/22 01:15:37;;;;;;;20.25;14.10;;;5.30;99.90;;;;;;5043197;28;20079;-75
2022/03/22 01:18:07;;;;;;;22.20;13.93;;;5.30;99.90;;;;;;5028824;28;20497;-76
2022/03/22 01:20:35;;;;;;;21.10;14.32;;;5.30;99.90;;;;;;5024565;28;20029;-75
2022/03/22 01:23:05;;;;;;;22.13;13.77;;;5.20;99.90;;;;;;5026378;28;20038;-76
2022/03/22 01:25:32;;;;;;;24.33;15.45;;;5.20;99.90;;;;;;5041383;28;20513;-75
2022/03/22 01:27:58;;;;;;;21.70;14.48;;;5.30;99.90;;;;;;5031970;28;20041;-75
2022/03/22 01:30:25;;;;;;;22.48;13.52;;;5.20;99.90;;;;;;5036166;28;20381;-75
2022/03/22 01:32:53;;;;;;;23.58;14.52;;;5.20;99.90;;;;;;5044146;28;20362;-75
2022/03/22 01:35:21;;;;;;;21.83;14.40;;;5.10;99.90;;;;;;5019480;28;20034;-76
2022/03/22 01:37:47;;;;;;;23.38;15.30;;;5.10;99.90;;;;;;5026001;28;20031;-76
2022/03/22 01:40:16;;;;;;;21.00;13.77;;;5.00;99.90;;;;;;5004978;28;20022;-75
2022/03/22 01:42:42;;;;;;;23.75;14.80;;;5.00;99.90;;;;;;5045426;28;20075;-75
2022/03/22 01:45:09;;;;;;;21.52;13.32;;;5.00;99.90;;;;;;5024281;28;20021;-75
2022/03/22 01:47:38;;;;;;;21.30;14.40;;;5.00;99.90;;;;;;5029367;28;20029;-75
2022/03/22 01:50:05;;;;;;;23.60;14.40;;;5.00;99.90;;;;;;5043940;28;20029;-75
2022/03/22 01:52:34;;;;;;;21.27;13.27;;;5.00;99.90;;;;;;5042588;28;20124;-75
2022/03/22 01:55:00;;;;;;;19.45;12.98;;;5.00;99.90;;;;;;5014454;28;20107;-76
2022/03/22 01:57:30;;;;;;;19.08;13.48;;;4.90;99.90;;;;;;5006496;28;20467;-76
2022/03/22 01:59:56;;;;;;;20.15;13.60;;;4.80;99.90;;;;;;5030927;28;20473;-76
2022/03/22 02:07:59;;;;;;;23.10;13.45;;;4.70;99.90;;;;;;5039420;28;20492;-76
2022/03/22 02:10:24;;;;;;;21.63;13.30;;;4.70;99.90;;;;;;5021418;28;20034;-75
2022/03/22 02:12:50;;;;;;;20.60;13.40;;;4.60;99.90;;;;;;5027946;28;20378;-75
2022/03/22 02:15:16;;;;;;;20.65;12.45;;;4.70;99.90;;;;;;5025724;28;20045;-76
2022/03/22 02:17:45;;;;;;;19.52;13.43;;;4.60;99.90;;;;;;5029185;28;20033;-75
2022/03/22 02:20:12;;;;;;;23.05;14.18;;;4.60;99.90;;;;;;5039930;28;20300;-76
2022/03/22 02:22:55;;;;;;;20.38;12.75;;;4.60;99.90;;;;;;5028107;28;20125;-75
2022/03/22 02:25:21;;;;;;;19.73;12.77;;;4.50;99.90;;;;;;5012707;28;20119;-76
2022/03/22 02:27:53;;;;;;;21.13;12.85;;;4.50;99.90;;;;;;5022229;28;20127;-76
2022/03/22 02:30:20;;;;;;;23.73;13.70;;;4.50;99.90;;;;;;5042464;28;20021;-75
2022/03/22 02:32:51;;;;;;;20.42;13.32;;;4.40;99.90;;;;;;5032253;28;20546;-76
2022/03/22 02:35:16;;;;;;;21.73;13.00;;;4.40;99.90;;;;;;5041141;28;20389;-75
2022/03/22 02:37:42;;;;;;;21.58;12.50;;;4.40;99.90;;;;;;5045443;28;20024;-75
2022/03/22 02:40:08;;;;;;;22.20;13.93;;;4.40;99.90;;;;;;5041079;28;20032;-75
2022/03/22 02:42:34;;;;;;;22.42;13.90;;;4.40;99.90;;;;;;5031266;28;20026;-76
2022/03/22 02:44:59;;;;;;;23.77;14.02;;;4.30;99.90;;;;;;5028715;28;20473;-76
2022/03/22 02:47:25;;;;;;;22.63;13.95;;;4.30;99.90;;;;;;5023268;28;20030;-77
2022/03/22 02:49:50;;;;;;;21.38;12.98;;;4.30;99.90;;;;;;5031421;28;20036;-76
2022/03/22 02:52:16;;;;;;;21.83;13.90;;;4.20;99.90;;;;;;5039679;28;20519;-76
2022/03/22 02:54:42;;;;;;;20.98;13.68;;;4.20;99.90;;;;;;5044760;28;20036;-76
2022/03/22 02:57:07;;;;;;;19.13;12.30;;;4.10;99.90;;;;;;5026053;28;20056;-76
2022/03/22 02:59:33;;;;;;;18.65;12.23;;;4.20;99.90;;;;;;5028135;28;20037;-76
2022/03/22 03:02:00;;;;;;;19.73;11.95;;;4.20;99.90;;;;;;5014651;28;20035;-76
2022/03/22 03:04:26;;;;;;;17.75;11.50;;;4.30;99.90;;;;;;5021303;28;20024;-76
2022/03/22 03:06:52;;;;;;;17.83;11.55;;;4.30;99.90;;;;;;5013632;28;20028;-76
2022/03/22 03:09:17;;;;;;;19.42;12.18;;;4.30;99.90;;;;;;5043561;28;20385;-76
2022/03/22 03:11:43;;;;;;;21.13;13.82;;;4.30;99.90;;;;;;5012131;28;20103;-76
2022/03/22 03:16:52;;;;;;;21.52;12.90;;;4.00;99.90;;;;;;5042204;28;20029;-76
2022/03/22 03:19:18;;;;;;;21.08;14.07;;;4.10;99.90;;;;;;5032110;28;20119;-76
2022/03/22 03:21:44;;;;;;;19.15;12.27;;;4.10;99.90;;;;;;5031694;28;20068;-76
2022/03/22 03:24:10;;;;;;;21.33;12.10;;;4.00;99.90;;;;;;5040604;28;20163;-76
2022/03/22 03:26:35;;;;;;;21.17;12.43;;;3.90;99.90;;;;;;5039377;28;20477;-75
2022/03/22 03:29:01;;;;;;;21.20;13.60;;;3.90;99.90;;;;;;5027085;28;20040;-76
2022/03/22 03:31:26;;;;;;;19.30;12.38;;;3.90;99.90;;;;;;5005891;28;20116;-76
2022/03/22 03:33:54;;;;;;;19.75;12.80;;;3.90;99.90;;;;;;5042768;28;20049;-76
2022/03/22 03:36:20;;;;;;;18.17;11.90;;;3.90;99.90;;;;;;5038202;28;20039;-76
2022/03/22 03:38:46;;;;;;;19.17;12.20;;;3.90;99.90;;;;;;5019948;28;20116;-76
2022/03/22 03:43:57;;;;;;;19.13;11.98;;;3.80;99.90;;;;;;5043447;28;20033;-76
2022/03/22 03:49:08;;;;;;;19.05;10.68;;;3.70;99.90;;;;;;5027040;28;20584;-76
2022/03/22 03:51:35;;;;;;;17.02;11.57;;;3.70;99.90;;;;;;5044559;28;20069;-76
2022/03/22 03:54:02;;;;;;;17.25;10.98;;;3.80;99.90;;;;;;5041009;28;20045;-75
2022/03/22 03:56:27;;;;;;;17.30;10.90;;;3.70;99.90;;;;;;5043484;28;20474;-76
2022/03/22 03:58:56;;;;;;;16.58;11.05;;;3.80;99.90;;;;;;5045345;28;20068;-76
2022/03/22 04:01:22;;;;;;;18.80;11.73;;;3.80;99.90;;;;;;5024439;28;20040;-76
2022/03/22 04:03:47;;;;;;;18.70;11.27;;;3.70;99.90;;;;;;5031203;28;20021;-76
2022/03/22 04:06:13;;;;;;;18.83;12.27;;;3.70;99.90;;;;;;5029891;28;20025;-76
2022/03/22 04:08:39;;;;;;;18.13;11.25;;;3.70;99.90;;;;;;5014199;28;20025;-76
2022/03/22 04:11:04;;;;;;;20.48;12.30;;;3.70;99.90;;;;;;5029757;28;20541;-76
2022/03/22 04:13:30;;;;;;;18.50;12.02;;;3.60;99.90;;;;;;5022340;28;20964;-75
2022/03/22 04:15:55;;;;;;;20.10;11.48;;;3.70;99.90;;;;;;5043920;28;20040;-76
2022/03/22 04:18:21;;;;;;;18.08;10.60;;;3.70;99.90;;;;;;5033454;28;20045;-76
2022/03/22 04:20:47;;;;;;;18.70;10.68;;;3.70;99.90;;;;;;5020594;28;20108;-76
2022/03/22 04:23:14;;;;;;;18.67;10.90;;;3.60;99.90;;;;;;5041948;28;20033;-75
2022/03/22 04:25:40;;;;;;;15.73;9.15;;;3.50;99.90;;;;;;5008754;28;20060;-77
2022/03/22 04:33:34;;;;;;;19.23;10.95;;;3.70;99.90;;;;;;5038062;28;20043;-76
2022/03/22 04:36:00;;;;;;;16.52;10.43;;;3.60;99.90;;;;;;5021286;28;20029;-76
2022/03/22 04:38:25;;;;;;;16.45;10.50;;;3.60;99.90;;;;;;5044149;28;20503;-76
2022/03/22 04:40:51;;;;;;;19.33;10.45;;;3.50;99.90;;;;;;5040856;28;20037;-76
2022/03/22 04:43:17;;;;;;;17.13;10.70;;;3.50;99.90;;;;;;5040610;28;20040;-75
2022/03/22 04:45:43;;;;;;;21.13;12.23;;;3.40;99.90;;;;;;5021912;28;20025;-76
2022/03/22 04:48:09;;;;;;;19.70;11.63;;;3.30;99.90;;;;;;5021169;28;20227;-74
2022/03/22 04:50:35;;;;;;;16.90;11.38;;;3.30;99.90;;;;;;5020363;28;20180;-76
2022/03/22 04:58:29;;;;;;;15.85;9.85;;;3.40;99.90;;;;;;5026533;28;20460;-76
2022/03/22 05:00:55;;;;;;;16.52;9.80;;;3.30;99.90;;;;;;5014559;28;20119;-75
2022/03/22 05:03:20;;;;;;;16.20;10.30;;;3.30;99.90;;;;;;5031222;28;20033;-76
2022/03/22 05:08:32;;;;;;;17.13;10.27;;;3.20;99.90;;;;;;5039470;28;20040;-75
2022/03/22 05:10:59;;;;;;;13.90;8.90;;;3.20;99.90;;;;;;5038663;28;20049;-75
2022/03/22 05:13:24;;;;;;;17.30;9.95;;;3.10;99.90;;;;;;5019191;28;20414;-76
2022/03/22 05:15:51;;;;;;;17.65;10.20;;;3.10;99.90;;;;;;5031508;28;20115;-75
2022/03/22 05:18:17;;;;;;;17.17;9.57;;;3.10;99.90;;;;;;5030636;28;20031;-75
2022/03/22 05:20:43;;;;;;;17.40;10.27;;;3.30;99.90;;;;;;5024230;28;20119;-78
2022/03/22 05:23:09;;;;;;;15.35;8.90;;;3.20;99.90;;;;;;5041828;28;20021;-75
2022/03/22 05:25:34;;;;;;;16.75;9.80;;;3.30;99.90;;;;;;5027328;28;20021;-76
2022/03/22 05:28:02;;;;;;;16.42;9.02;;;3.20;99.90;;;;;;5029621;28;20079;-76
2022/03/22 05:30:28;;;;;;;14.57;8.93;;;3.20;99.90;;;;;;5041048;28;20075;-76
2022/03/22 05:32:54;;;;;;;15.02;8.85;;;3.20;99.90;;;;;;5016255;28;20044;-75
2022/03/22 05:35:20;;;;;;;15.23;8.60;;;3.20;99.90;;;;;;5043947;28;20067;-75
2022/03/22 05:37:46;;;;;;;14.82;9.40;;;3.20;99.90;;;;;;5010829;28;20073;-75
2022/03/22 05:40:12;;;;;;;15.10;8.82;;;3.10;99.90;;;;;;5011734;28;20037;-75
2022/03/22 05:42:40;;;;;;;12.95;8.38;;;3.10;99.90;;;;;;5012485;28;20033;-76
2022/03/22 05:45:10;;;;;;;16.90;9.80;;;3.20;99.90;;;;;;5022776;28;20029;-75
2022/03/22 05:47:36;;;;;;;15.20;9.43;;;3.10;99.90;;;;;;5012154;28;20543;-75
2022/03/22 05:50:02;;;;;;;14.07;8.95;;;3.10;99.90;;;;;;5033570;28;20405;-75
2022/03/22 05:52:28;;;;;;;15.65;9.80;;;3.00;99.90;;;;;;5011475;28;20053;-75
2022/03/22 05:54:53;;;;;;;15.60;10.02;;;3.10;99.90;;;;;;5030959;28;20472;-75
2022/03/22 05:57:19;;;;;;;15.88;9.48;;;3.20;99.90;;;;;;5041648;28;20381;-76
2022/03/22 05:59:44;;;;;;;13.93;8.25;;;3.20;99.90;;;;;;5037850;28;20058;-76
2022/03/22 06:02:10;;;;;;;17.17;9.73;;;3.20;99.90;;;;;;5032910;28;20034;-75
2022/03/22 06:04:36;;;;;;;15.38;8.38;;;3.30;99.90;;;;;;5033311;28;20124;-76
2022/03/22 06:07:02;;;;;;;14.13;8.57;;;3.30;99.90;;;;;;5012372;28;20031;-76
2022/03/22 06:09:27;;;;;;;15.25;9.35;;;3.50;99.90;;;;;;5027604;28;20052;-75
2022/03/22 06:11:53;;;;;;;13.30;9.00;;;3.60;99.90;;;;;;5020094;28;20094;-75
2022/03/22 06:14:18;;;;;;;14.27;8.93;;;3.70;99.90;;;;;;5020413;28;20426;-75
2022/03/22 06:16:44;;;;;;;15.70;9.25;;;3.70;99.90;;;;;;5014052;28;20381;-75
2022/03/22 06:19:10;;;;;;;19.02;10.20;;;3.80;99.90;;;;;;5010728;28;20025;-75
2022/03/22 06:21:35;;;;;;;14.70;9.25;;;3.80;99.90;;;;;;5023630;28;20409;-75
2022/03/22 06:24:01;;;;;;;15.48;9.35;;;3.80;99.90;;;;;;5022453;28;20029;-76
2022/03/22 06:26:27;;;;;;;14.32;8.98;;;3.90;99.90;;;;;;5013258;28;20546;-75
2022/03/22 06:28:52;;;;;;;15.55;9.32;;;4.00;99.90;;;;;;5039458;28;20032;-75
2022/03/22 06:31:18;;;;;;;19.27;9.82;;;4.10;99.90;;;;;;5040184;28;20040;-75
2022/03/22 06:33:43;;;;;;;17.45;10.20;;;4.10;99.90;;;;;;5011096;28;20470;-75
2022/03/22 06:36:09;;;;;;;17.77;9.25;;;4.20;99.90;;;;;;5030993;28;20034;-76
2022/03/22 06:38:35;;;;;;;14.98;9.18;;;4.40;99.90;;;;;;5043043;28;20488;-76
2022/03/22 06:41:02;;;;;;;17.77;9.90;;;4.40;99.90;;;;;;5042297;28;20036;-76
2022/03/22 06:43:29;;;;;;;18.70;9.90;;;4.40;99.90;;;;;;5021296;28;20036;-76
2022/03/22 06:45:55;;;;;;;20.13;10.23;;;4.50;99.90;;;;;;5020769;28;20473;-76
2022/03/22 06:48:22;;;;;;;16.58;10.52;;;4.60;99.90;;;;;;5040511;28;20044;-76
2022/03/22 06:50:48;;;;;;;19.15;10.45;;;5.00;99.90;;;;;;5040683;28;20028;-75
2022/03/22 06:53:13;;;;;;;16.25;10.63;;;5.00;99.90;;;;;;5027987;28;20094;-77
2022/03/22 06:55:40;;;;;;;18.30;10.32;;;5.00;99.90;;;;;;5028034;28;20030;-76
2022/03/22 06:58:06;;;;;;;16.67;10.18;;;5.10;99.90;;;;;;5004645;28;20026;-76
2022/03/22 07:00:32;;;;;;;18.23;9.90;;;5.30;99.90;;;;;;5008351;28;20048;-76
2022/03/22 07:03:02;;;;;;;16.92;10.85;;;5.40;99.90;;;;;;5035553;28;20017;-76
2022/03/22 07:05:28;;;;;;;19.20;11.65;;;5.60;99.90;;;;;;5023995;28;20032;-76
2022/03/22 07:07:56;;;;;;;17.35;10.02;;;5.90;99.90;;;;;;5034301;28;20048;-76
2022/03/22 07:10:21;;;;;;;16.90;10.23;;;6.00;99.90;;;;;;5018415;28;20025;-76
2022/03/22 07:12:51;;;;;;;18.45;10.80;;;6.10;99.90;;;;;;5017301;28;20098;-76
2022/03/22 07:15:18;;;;;;;17.48;10.32;;;6.30;99.90;;;;;;5037148;28;20125;-77
2022/03/22 07:17:43;;;;;;;17.70;10.95;;;6.40;99.90;;;;;;5017252;28;20036;-77
2022/03/22 07:20:09;;;;;;;16.58;9.98;;;6.60;99.90;;;;;;5024921;28;20033;-76
2022/03/22 07:22:35;;;;;;;18.98;11.15;;;6.70;99.90;;;;;;5016841;28;20106;-76
2022/03/22 07:25:00;;;;;;;15.13;10.13;;;6.80;99.90;;;;;;5012361;28;20021;-76
2022/03/22 07:27:26;;;;;;;16.20;10.43;;;7.00;99.90;;;;;;5033531;28;20028;-76
2022/03/22 07:29:52;;;;;;;16.90;10.50;;;7.20;99.90;;;;;;5017228;28;20093;-76
2022/03/22 07:32:19;;;;;;;13.52;9.77;;;7.40;99.90;;;;;;5022778;28;20112;-76
2022/03/22 07:34:45;;;;;;;12.82;9.27;;;7.60;99.90;;;;;;5020460;28;20107;-77
2022/03/22 07:37:12;;;;;;;14.38;9.90;;;7.80;99.90;;;;;;5015332;28;20033;-76
2022/03/22 07:39:37;;;;;;;12.57;8.57;;;8.00;99.90;;;;;;5018174;28;20029;-76
2022/03/22 07:42:03;;;;;;;15.27;9.95;;;8.20;99.90;;;;;;5022326;28;20126;-76
2022/03/22 07:44:30;;;;;;;14.27;9.18;;;8.40;99.90;;;;;;5036678;28;20033;-76
2022/03/22 07:46:56;;;;;;;14.38;9.55;;;8.50;99.90;;;;;;5022779;28;20504;-77
2022/03/22 07:54:50;;;;;;;13.88;9.27;;;9.20;99.90;;;;;;5017802;28;20585;-76
2022/03/22 07:57:16;;;;;;;12.50;8.85;;;9.30;99.90;;;;;;5015443;28;20112;-77
2022/03/22 07:59:41;;;;;;;14.38;9.68;;;9.50;99.90;;;;;;5015999;28;20390;-76
2022/03/22 08:02:07;;;;;;;12.85;8.95;;;9.70;99.90;;;;;;4999149;28;20037;-77
2022/03/22 08:04:33;;;;;;;15.32;9.30;;;9.80;99.90;;;;;;5007359;28;20028;-77
2022/03/22 08:06:59;;;;;;;14.23;9.23;;;10.00;99.90;;;;;;5018650;28;20057;-76
2022/03/22 08:09:24;;;;;;;14.43;8.95;;;10.20;99.90;;;;;;5034198;28;20192;-76
2022/03/22 08:11:50;;;;;;;11.85;8.88;;;10.30;99.90;;;;;;5035453;28;20013;-76
2022/03/22 08:14:16;;;;;;;14.75;8.98;;;10.50;99.90;;;;;;5020173;28;20470;-76
2022/03/22 08:16:42;;;;;;;14.38;8.82;;;10.70;99.90;;;;;;5034163;28;20033;-76
2022/03/22 08:19:07;;;;;;;13.10;8.75;;;10.80;99.90;;;;;;5002502;28;20139;-76
2022/03/22 08:21:34;;;;;;;13.32;8.18;;;10.90;99.90;;;;;;5020698;28;20037;-76
2022/03/22 08:24:00;;;;;;;11.35;7.82;;;11.00;99.90;;;;;;5003604;28;20032;-76
2022/03/22 08:26:27;;;;;;;11.18;8.15;;;11.10;99.90;;;;;;5015802;28;20112;-76
2022/03/22 08:28:53;;;;;;;11.73;8.05;;;11.30;99.90;;;;;;5003575;28;21069;-76
2022/03/22 08:31:20;;;;;;;13.02;8.40;;;11.60;99.90;;;;;;5033823;28;20029;-76
2022/03/22 08:33:45;;;;;;;11.45;7.72;;;11.70;99.90;;;;;;5017193;28;20143;-77
2022/03/22 08:36:11;;;;;;;10.07;6.80;;;11.80;99.90;;;;;;5032038;28;20029;-76
2022/03/22 08:38:37;;;;;;;12.52;9.10;;;12.10;99.90;;;;;;5015130;28;20592;-77
2022/03/22 08:41:03;;;;;;;11.07;7.63;;;12.20;99.90;;;;;;5034274;28;20037;-76
2022/03/22 08:43:30;;;;;;;10.15;7.40;;;12.30;99.90;;;;;;5021498;28;20137;-76
2022/03/22 08:45:56;;;;;;;13.77;9.82;;;12.40;99.90;;;;;;5034063;28;20099;-77
2022/03/22 08:48:23;;;;;;;13.52;8.30;;;12.60;99.90;;;;;;5018033;28;20036;-77
2022/03/22 08:50:50;;;;;;;11.68;7.85;;;12.70;99.90;;;;;;5005260;28;20732;-77
2022/03/22 08:53:18;;;;;;;13.80;9.32;;;12.80;99.90;;;;;;5032946;28;20489;-76
2022/03/22 08:55:48;;;;;;;13.15;9.32;;;12.90;99.90;;;;;;5016542;28;20042;-77
2022/03/22 08:58:14;;;;;;;11.35;8.02;;;13.10;99.90;;;;;;5032137;28;20160;-77
2022/03/22 09:00:40;;;;;;;11.57;8.27;;;13.20;99.90;;;;;;5032998;28;20037;-77
2022/03/22 09:03:08;;;;;;;11.63;7.80;;;13.30;99.90;;;;;;5016244;28;20029;-77
2022/03/22 09:08:18;;;;;;;10.40;7.90;;;13.50;99.90;;;;;;5032804;28;20069;-77
2022/03/22 09:10:46;;;;;;;10.50;7.28;;;13.50;99.90;;;;;;5021448;28;20107;-77
2022/03/22 09:13:13;;;;;;;10.02;7.43;;;13.70;99.90;;;;;;5000130;28;20040;-76
2022/03/22 09:15:39;;;;;;;11.20;7.97;;;13.90;99.90;;;;;;5033727;28;20029;-77
2022/03/22 09:18:12;;;;;;;10.32;7.47;;;14.10;99.90;;;;;;5015073;28;20033;-77
2022/03/22 09:20:38;;;;;;;10.30;6.93;;;14.20;99.90;;;;;;5032097;28;20033;-76
2022/03/22 09:23:04;;;;;;;9.25;6.90;;;14.30;99.90;;;;;;5033165;28;20458;-77
2022/03/22 09:25:30;;;;;;;8.98;6.43;;;14.50;99.90;;;;;;5016280;28;20033;-77
2022/03/22 09:27:56;;;;;;;10.32;6.55;;;14.60;99.90;;;;;;5017402;28;20083;-77
2022/03/22 09:30:23;;;;;;;9.25;7.07;;;14.80;99.90;;;;;;5000211;28;20401;-77
2022/03/22 09:32:50;;;;;;;9.45;6.50;;;14.80;99.90;;;;;;5018844;28;20025;-77
2022/03/22 09:35:19;;;;;;;10.27;6.43;;;14.90;99.90;;;;;;5000242;28;20385;-78
2022/03/22 09:37:46;;;;;;;9.65;6.70;;;15.00;99.90;;;;;;5016800;28;20021;-77
2022/03/22 09:40:13;;;;;;;8.55;7.03;;;15.10;99.90;;;;;;5017124;28;20454;-77
2022/03/22 09:42:43;;;;;;;7.88;5.25;;;15.40;99.90;;;;;;5031699;28;20029;-77
2022/03/22 09:45:10;;;;;;;11.73;6.35;;;15.50;99.90;;;;;;5016086;28;20346;-77
2022/03/22 09:47:37;;;;;;;8.32;6.30;;;15.40;99.90;;;;;;5019923;28;20670;-77
2022/03/22 09:50:10;;;;;;;10.13;6.38;;;15.60;99.90;;;;;;5033672;28;20172;-77
2022/03/22 09:52:37;;;;;;;10.25;6.95;;;15.60;99.90;;;;;;5033946;28;20321;-77
2022/03/22 09:55:04;;;;;;;9.85;6.80;;;15.60;99.90;;;;;;5019202;28;20464;-77
2022/03/22 09:57:29;;;;;;;7.88;5.80;;;15.90;99.90;;;;;;5032977;28;20021;-77
2022/03/22 09:59:55;;;;;;;8.20;6.38;;;16.00;99.90;;;;;;5020998;28;20489;-77
2022/03/22 10:02:29;;;;;;;9.52;6.07;;;16.20;99.90;;;;;;5017390;28;20037;-77
2022/03/22 10:04:54;;;;;;;7.50;5.55;;;16.20;99.90;;;;;;5001976;28;20079;-77
2022/03/22 10:07:21;;;;;;;7.53;5.32;;;16.30;99.90;;;;;;5035376;28;20056;-77
2022/03/22 10:09:57;;;;;;;9.55;6.82;;;16.40;99.90;;;;;;5019285;28;20477;-78
2022/03/22 10:12:33;;;;;;;11.75;6.80;;;16.50;99.90;;;;;;5035311;28;20043;-77
2022/03/22 10:15:13;;;;;;;10.55;7.65;;;16.30;99.90;;;;;;5002347;28;20044;-77
2022/03/22 10:17:40;;;;;;;8.63;6.13;;;16.50;99.90;;;;;;5002790;28;20035;-77
2022/03/22 10:20:08;;;;;;;9.90;7.40;;;16.70;99.90;;;;;;5008995;28;20025;-77
2022/03/22 10:22:35;;;;;;;11.52;7.22;;;16.70;99.90;;;;;;4977577;28;20052;-77
2022/03/22 10:25:07;;;;;;;8.48;5.32;;;16.90;99.90;;;;;;5037534;28;20029;-78
2022/03/22 10:27:35;;;;;;;9.80;6.72;;;17.10;99.90;;;;;;5004052;28;20075;-77
2022/03/22 10:30:04;;;;;;;7.97;5.82;;;16.90;99.90;;;;;;5002844;28;20026;-77
2022/03/22 10:32:34;;;;;;;8.73;6.05;;;17.30;99.90;;;;;;5004432;28;20029;-77
2022/03/22 10:35:32;;;;;;;9.27;5.95;;;17.40;99.90;;;;;;5001911;28;20091;-78
2022/03/22 10:38:04;;;;;;;11.18;5.63;;;17.30;99.90;;;;;;5008689;28;20068;-77
2022/03/22 10:40:40;;;;;;;9.80;5.20;;;17.40;99.90;;;;;;5035989;28;20083;-77
2022/03/22 10:43:18;;;;;;;7.70;5.25;;;17.50;99.90;;;;;;5004819;28;20448;-78
2022/03/22 10:45:48;;;;;;;6.95;5.00;;;17.70;99.90;;;;;;5036484;28;20086;-78
2022/03/22 10:48:20;;;;;;;7.20;4.85;;;17.70;99.90;;;;;;5032984;28;20083;-78
2022/03/22 10:50:47;;;;;;;9.35;5.47;;;17.80;99.90;;;;;;5025787;28;20025;-79
2022/03/22 10:53:17;;;;;;;5.57;3.92;;;17.90;99.90;;;;;;5008743;28;20078;-78
2022/03/22 10:55:44;;;;;;;11.00;6.10;;;18.00;99.90;;;;;;5022939;28;20038;-77
2022/03/22 10:58:18;;;;;;;8.68;6.22;;;18.00;99.90;;;;;;5023485;28;20033;-78
2022/03/22 11:00:45;;;;;;;10.20;6.13;;;18.00;99.90;;;;;;5003905;28;20115;-78
2022/03/22 11:03:13;;;;;;;8.50;5.22;;;18.00;99.90;;;;;;5008542;28;20116;-77
2022/03/22 11:05:43;;;;;;;7.70;4.80;;;18.10;99.90;;;;;;5018655;28;20021;-79
2022/03/22 11:08:10;;;;;;;8.70;6.13;;;18.20;99.90;;;;;;5037023;28;20048;-78
2022/03/22 11:10:35;;;;;;;9.82;5.55;;;18.40;99.90;;;;;;5017448;28;20029;-78
2022/03/22 11:13:01;;;;;;;7.72;5.05;;;18.50;99.90;;;;;;5018530;28;20139;-79
2022/03/22 11:15:35;;;;;;;7.05;3.92;;;18.60;99.90;;;;;;5004491;28;20132;-78
2022/03/22 11:18:01;;;;;;;6.78;3.92;;;18.60;99.90;;;;;;5002035;28;20397;-79
2022/03/22 11:20:27;;;;;;;5.80;3.58;;;18.60;99.90;;;;;;5021752;28;20041;-78
2022/03/22 11:22:56;;;;;;;6.30;4.38;;;19.00;99.90;;;;;;5035423;28;20040;-78
2022/03/22 11:25:28;;;;;;;7.10;5.00;;;18.90;99.90;;;;;;5019510;28;20175;-78
2022/03/22 11:28:03;;;;;;;8.57;5.70;;;18.70;99.90;;;;;;5020815;28;20037;-78
2022/03/22 11:30:30;;;;;;;8.75;5.93;;;18.60;99.90;;;;;;5022214;28;20045;-77
2022/03/22 11:35:48;;;;;;;14.77;8.05;;;18.80;99.90;;;;;;5032537;28;20044;-78
2022/03/22 11:38:35;;;;;;;9.95;7.22;;;18.70;99.90;;;;;;5034515;28;20497;-78
2022/03/22 11:43:46;;;;;;;9.60;5.70;;;19.00;99.90;;;;;;5032001;28;20037;-78
2022/03/22 11:46:12;;;;;;;5.70;3.47;;;19.20;99.90;;;;;;5034297;28;20032;-78
2022/03/22 11:48:39;;;;;;;9.95;5.47;;;19.40;99.90;;;;;;5020694;28;20026;-78
2022/03/22 11:51:06;;;;;;;9.55;5.93;;;19.50;99.90;;;;;;5019603;28;20111;-78
2022/03/22 11:53:44;;;;;;;8.35;5.70;;;19.40;99.90;;;;;;5022673;28;20388;-78
2022/03/22 11:56:10;;;;;;;6.68;5.15;;;19.50;99.90;;;;;;5000450;28;20042;-78
2022/03/22 11:58:36;;;;;;;10.25;6.35;;;19.60;99.90;;;;;;5034614;28;20445;-77
2022/03/22 12:01:10;;;;;;;9.95;4.85;;;19.80;99.90;;;;;;5033411;28;20029;-78
2022/03/22 12:03:35;;;;;;;10.75;7.15;;;19.60;99.90;;;;;;5007046;28;20036;-78
2022/03/22 12:06:11;;;;;;;10.40;7.07;;;19.50;99.90;;;;;;5002785;28;20029;-78
2022/03/22 12:08:38;;;;;;;11.65;6.43;;;19.60;99.90;;;;;;5019410;28;20044;-78
2022/03/22 12:11:04;;;;;;;10.23;5.22;;;19.70;99.90;;;;;;5021040;28;20039;-78
2022/03/22 12:13:30;;;;;;;9.88;6.47;;;19.60;99.90;;;;;;5032574;28;20025;-78
2022/03/22 12:16:01;;;;;;;8.57;5.95;;;19.50;99.90;;;;;;5016227;28;20302;-79
2022/03/22 12:18:31;;;;;;;7.75;5.32;;;19.60;99.90;;;;;;5019893;28;20028;-78
2022/03/22 12:20:57;;;;;;;7.80;5.03;;;19.80;99.90;;;;;;5034418;28;20052;-79
2022/03/22 12:23:24;;;;;;;12.38;7.88;;;19.60;99.90;;;;;;5033364;28;20028;-78
2022/03/22 12:25:51;;;;;;;11.20;7.15;;;19.50;99.90;;;;;;5034687;28;20033;-78
2022/03/22 12:28:17;;;;;;;8.18;4.78;;;19.90;99.90;;;;;;5035533;28;20029;-78
2022/03/22 12:30:45;;;;;;;9.77;5.63;;;20.00;99.90;;;;;;5006569;28;20291;-78
2022/03/22 12:33:18;;;;;;;8.48;4.93;;;20.20;99.90;;;;;;5017904;28;20041;-78
2022/03/22 12:35:45;;;;;;;8.48;5.30;;;20.20;99.90;;;;;;5005555;28;20068;-78
2022/03/22 12:38:12;;;;;;;8.32;4.40;;;20.20;99.90;;;;;;5006638;28;20489;-78
2022/03/22 12:40:37;;;;;;;9.43;5.00;;;20.20;99.90;;;;;;5033890;28;20561;-78
2022/03/22 12:43:06;;;;;;;6.28;4.20;;;20.10;99.90;;;;;;5018135;28;20238;-78
2022/03/22 12:45:32;;;;;;;7.80;4.40;;;20.20;99.90;;;;;;5033688;28;20497;-78
2022/03/22 12:47:59;;;;;;;5.95;3.90;;;20.10;99.90;;;;;;5023654;28;20378;-78
2022/03/22 12:50:27;;;;;;;4.72;3.05;;;20.50;99.90;;;;;;5014650;28;20021;-78
2022/03/22 12:52:54;;;;;;;5.85;3.95;;;20.60;99.90;;;;;;5017847;28;20028;-78
2022/03/22 12:55:21;;;;;;;6.53;2.95;;;20.60;99.90;;;;;;5016144;28;20065;-78
2022/03/22 12:57:48;;;;;;;5.53;3.22;;;20.60;99.90;;;;;;5034370;28;20055;-78
2022/03/22 13:00:37;;;;;;;7.30;4.07;;;20.60;99.90;;;;;;5034337;28;20037;-78
2022/03/22 13:03:11;;;;;;;6.00;3.33;;;20.50;99.30;;;;;;5034530;28;20503;-78
2022/03/22 13:05:41;;;;;;;6.53;4.55;;;20.70;99.40;;;;;;5021913;28;20481;-78
2022/03/22 13:08:18;;;;;;;8.05;4.35;;;20.40;99.40;;;;;;5034512;28;20026;-78
2022/03/22 13:15:01;;;;;;;5.93;3.67;;;20.50;99.10;;;;;;5032995;28;20031;-78
2022/03/22 13:16:25;;;;;;;5.82;3.75;;;20.50;99.50;;;;;;5019886;28;20041;-77
2022/03/22 13:18:52;;;;;;;6.13;4.07;;;20.40;98.70;;;;;;5018842;28;20044;-78
2022/03/22 13:21:35;;;;;;;5.15;3.13;;;20.20;98.90;;;;;;5022655;28;20033;-78
2022/03/22 13:24:11;;;;;;;6.07;3.22;;;20.40;99.30;;;;;;5017581;28;20051;-78
2022/03/22 13:26:49;;;;;;;5.28;3.00;;;20.40;99.60;;;;;;4999672;28;20599;-78